Time;durP1;ratioP1;P1;durP2;ratioP2;P2;SDS_P1;SDS_P2;PMS_P1;PMS_P2;Temp;Humidity;BMP_temperature;BMP_pressure;BME280_temperature;BME280_humidity;BME280_pressure;Samples;Min_cycle;Max_cycle;Signal;HPM_P1;HPM_P2
2023/07/11 00:00:05;;;;;;;13.30;10.20;;;;;;;;;;108121;1253;22532;-80
2023/07/11 00:02:31;;;;;;;16.20;11.40;;;;;;;;;;108053;1251;22658;-80
2023/07/11 00:04:58;;;;;;;19.00;11.40;;;;;;;;;;108218;1254;25355;-80
2023/07/11 00:07:25;;;;;;;17.70;11.30;;;;;;;;;;108224;1252;26393;-80
2023/07/11 00:09:51;;;;;;;19.20;11.70;;;;;;;;;;108169;1251;23938;-80
2023/07/11 00:12:17;;;;;;;15.60;11.50;;;;;;;;;;108174;1251;22604;-80
2023/07/11 00:14:44;;;;;;;16.40;12.00;;;;;;;;;;108203;1255;25371;-80
2023/07/11 00:17:11;;;;;;;16.70;11.60;;;;;;;;;;108142;1251;23839;-79
2023/07/11 00:19:51;;;;;;;17.60;10.30;;;;;;;;;;108192;1251;22633;-80
2023/07/11 00:22:18;;;;;;;20.00;10.20;;;;;;;;;;108170;1251;22524;-80
2023/07/11 00:24:44;;;;;;;15.40;10.00;;;;;;;;;;108202;1255;22542;-80
2023/07/11 00:27:11;;;;;;;14.50;9.50;;;;;;;;;;108135;1251;22807;-80
2023/07/11 00:29:37;;;;;;;13.50;10.20;;;;;;;;;;108066;1251;23027;-79
2023/07/11 00:32:04;;;;;;;16.10;9.50;;;;;;;;;;108217;1254;24352;-80
2023/07/11 00:34:30;;;;;;;11.50;8.50;;;;;;;;;;108285;1251;23268;-79
2023/07/11 00:36:57;;;;;;;11.70;8.00;;;;;;;;;;108186;1251;23035;-79
2023/07/11 00:39:25;;;;;;;11.50;8.40;;;;;;;;;;108213;1254;25231;-79
2023/07/11 00:41:52;;;;;;;13.20;7.80;;;;;;;;;;108187;1251;22537;-80
2023/07/11 00:44:18;;;;;;;12.60;8.30;;;;;;;;;;108179;1251;22602;-79
2023/07/11 00:46:44;;;;;;;11.60;7.60;;;;;;;;;;108227;1251;25490;-79
2023/07/11 00:49:12;;;;;;;10.40;7.30;;;;;;;;;;108209;1251;22579;-80
2023/07/11 00:51:40;;;;;;;10.40;7.30;;;;;;;;;;108211;1250;24223;-80
2023/07/11 00:54:07;;;;;;;13.60;8.90;;;;;;;;;;108190;1252;22588;-80
2023/07/11 00:56:35;;;;;;;14.20;8.80;;;;;;;;;;108200;1251;22526;-80
2023/07/11 00:59:01;;;;;;;13.80;8.90;;;;;;;;;;108241;1251;22578;-80
2023/07/11 01:01:27;;;;;;;12.00;9.40;;;;;;;;;;108181;1251;24177;-80
2023/07/11 01:03:54;;;;;;;10.20;6.70;;;;;;;;;;110145;1251;22246;-80
2023/07/11 01:06:21;;;;;;;11.50;8.60;;;;;;;;;;109943;1251;24249;-80
2023/07/11 01:08:48;;;;;;;10.20;7.50;;;;;;;;;;109882;1251;22360;-80
2023/07/11 01:11:14;;;;;;;16.50;9.60;;;;;;;;;;110603;1251;22379;-80
2023/07/11 01:13:41;;;;;;;10.80;7.70;;;;;;;;;;110706;1251;22442;-80
2023/07/11 01:16:07;;;;;;;9.90;7.10;;;;;;;;;;110707;1251;22412;-81
2023/07/11 01:18:34;;;;;;;14.30;8.20;;;;;;;;;;110701;1251;22261;-80
2023/07/11 01:21:00;;;;;;;10.90;7.90;;;;;;;;;;110604;1251;22475;-80
2023/07/11 01:23:26;;;;;;;14.10;9.60;;;;;;;;;;110709;1251;22767;-80
2023/07/11 01:25:59;;;;;;;12.20;7.70;;;;;;;;;;110721;1251;22499;-80
2023/07/11 01:28:25;;;;;;;11.00;8.10;;;;;;;;;;110736;1251;22474;-81
2023/07/11 01:30:52;;;;;;;10.90;8.40;;;;;;;;;;110739;1251;22217;-80
2023/07/11 01:33:18;;;;;;;11.90;8.20;;;;;;;;;;110697;1251;22903;-80
2023/07/11 01:35:44;;;;;;;14.40;8.90;;;;;;;;;;108842;1250;22567;-80
2023/07/11 01:38:11;;;;;;;10.70;7.90;;;;;;;;;;108211;1251;23929;-80
2023/07/11 01:40:37;;;;;;;11.70;8.00;;;;;;;;;;108194;1252;22536;-80
2023/07/11 01:43:04;;;;;;;13.30;7.80;;;;;;;;;;108212;1254;22522;-80
2023/07/11 01:45:30;;;;;;;13.50;7.10;;;;;;;;;;108168;1251;22661;-80
2023/07/11 01:47:57;;;;;;;14.80;10.20;;;;;;;;;;108199;1251;22583;-80
2023/07/11 01:50:23;;;;;;;9.90;6.50;;;;;;;;;;108173;1251;26552;-80
2023/07/11 01:52:49;;;;;;;14.40;8.90;;;;;;;;;;108183;1251;22521;-80
2023/07/11 01:55:15;;;;;;;15.00;8.30;;;;;;;;;;108224;1251;24218;-80
2023/07/11 01:57:42;;;;;;;12.10;7.70;;;;;;;;;;108180;1249;22550;-80
2023/07/11 02:00:09;;;;;;;11.90;8.30;;;;;;;;;;108229;1251;22522;-81
2023/07/11 02:02:35;;;;;;;15.60;8.10;;;;;;;;;;108199;1251;23964;-80
2023/07/11 02:05:02;;;;;;;12.20;8.20;;;;;;;;;;108645;1251;22605;-79
2023/07/11 02:07:28;;;;;;;15.20;9.00;;;;;;;;;;108165;1251;22551;-80
2023/07/11 02:09:54;;;;;;;13.60;8.90;;;;;;;;;;108155;1251;23758;-80
2023/07/11 02:12:21;;;;;;;7.80;6.50;;;;;;;;;;108206;1250;22528;-80
2023/07/11 02:14:47;;;;;;;10.80;7.20;;;;;;;;;;108264;1251;22619;-80
2023/07/11 02:17:16;;;;;;;10.00;6.60;;;;;;;;;;108202;1251;24249;-80
2023/07/11 02:19:44;;;;;;;9.30;6.10;;;;;;;;;;108122;1251;22531;-80
2023/07/11 02:22:11;;;;;;;10.30;6.50;;;;;;;;;;108253;1254;22647;-80
2023/07/11 02:24:41;;;;;;;14.10;9.40;;;;;;;;;;108026;1251;22537;-80
2023/07/11 02:27:07;;;;;;;11.80;9.00;;;;;;;;;;108170;1254;22530;-80
2023/07/11 02:29:33;;;;;;;13.00;7.60;;;;;;;;;;108238;1251;22524;-80
2023/07/11 02:32:00;;;;;;;15.70;9.20;;;;;;;;;;108126;1251;22526;-80
2023/07/11 02:34:27;;;;;;;13.40;8.90;;;;;;;;;;108181;1254;22487;-80
2023/07/11 02:36:53;;;;;;;17.80;10.80;;;;;;;;;;107996;1251;23122;-80
2023/07/11 02:39:19;;;;;;;12.70;7.80;;;;;;;;;;108510;1251;22572;-80
2023/07/11 02:41:46;;;;;;;13.20;7.80;;;;;;;;;;110599;1251;22285;-80
2023/07/11 02:44:12;;;;;;;12.10;7.50;;;;;;;;;;110604;1251;22441;-81
2023/07/11 02:46:39;;;;;;;18.00;11.60;;;;;;;;;;110605;1251;23464;-80
2023/07/11 02:49:08;;;;;;;17.60;11.70;;;;;;;;;;109185;1251;22851;-80
2023/07/11 02:51:35;;;;;;;18.90;10.10;;;;;;;;;;107972;1251;25514;-80
2023/07/11 02:54:02;;;;;;;12.10;8.60;;;;;;;;;;108087;1251;25471;-79
2023/07/11 02:56:28;;;;;;;12.40;9.10;;;;;;;;;;108065;1251;22642;-80
2023/07/11 02:58:54;;;;;;;14.40;9.30;;;;;;;;;;108156;1251;22594;-80
2023/07/11 03:01:21;;;;;;;14.50;9.70;;;;;;;;;;108074;1251;22534;-80
2023/07/11 03:03:47;;;;;;;14.40;8.60;;;;;;;;;;108160;1251;25330;-80
2023/07/11 03:06:14;;;;;;;12.90;10.10;;;;;;;;;;108146;1251;24251;-80
2023/07/11 03:08:40;;;;;;;9.60;7.60;;;;;;;;;;107941;1251;22558;-79
2023/07/11 03:11:06;;;;;;;11.40;6.70;;;;;;;;;;108051;1254;23199;-80
2023/07/11 03:13:33;;;;;;;8.30;6.20;;;;;;;;;;108148;1251;22549;-80
2023/07/11 03:16:02;;;;;;;7.70;5.80;;;;;;;;;;108097;1251;22527;-80
2023/07/11 03:18:29;;;;;;;11.50;6.30;;;;;;;;;;108207;1251;25387;-79
2023/07/11 03:20:56;;;;;;;11.10;6.80;;;;;;;;;;108159;1251;22532;-80
2023/07/11 03:23:23;;;;;;;9.20;7.00;;;;;;;;;;108202;1251;22966;-80
2023/07/11 03:25:49;;;;;;;8.00;6.70;;;;;;;;;;108154;1251;22538;-79
2023/07/11 03:28:16;;;;;;;9.60;7.30;;;;;;;;;;108191;1251;22599;-79
2023/07/11 03:30:42;;;;;;;10.00;6.80;;;;;;;;;;107619;1251;22880;-79
2023/07/11 03:33:08;;;;;;;9.20;6.20;;;;;;;;;;107606;1251;23371;-79
2023/07/11 03:35:34;;;;;;;8.10;6.30;;;;;;;;;;107557;1251;22540;-79
2023/07/11 03:38:01;;;;;;;13.60;6.40;;;;;;;;;;108079;1250;22705;-79
2023/07/11 03:40:29;;;;;;;7.10;6.00;;;;;;;;;;108122;1251;23000;-79
2023/07/11 03:42:56;;;;;;;8.90;6.90;;;;;;;;;;108138;1251;22593;-80
2023/07/11 03:45:22;;;;;;;7.00;6.30;;;;;;;;;;108106;1251;24272;-80
2023/07/11 03:47:48;;;;;;;7.10;5.80;;;;;;;;;;107944;1251;22532;-80
2023/07/11 03:50:15;;;;;;;12.50;6.80;;;;;;;;;;108186;1251;22533;-80
2023/07/11 03:52:41;;;;;;;8.50;6.90;;;;;;;;;;108104;1255;25327;-80
2023/07/11 03:55:08;;;;;;;11.80;6.10;;;;;;;;;;107938;1251;22562;-80
2023/07/11 03:57:34;;;;;;;8.90;6.40;;;;;;;;;;107988;1251;22575;-81
2023/07/11 04:00:01;;;;;;;7.90;6.00;;;;;;;;;;108151;1251;24265;-80
2023/07/11 04:02:27;;;;;;;7.00;5.80;;;;;;;;;;108105;1251;22568;-81
2023/07/11 04:04:53;;;;;;;13.00;6.40;;;;;;;;;;108112;1251;24224;-80
2023/07/11 04:07:19;;;;;;;10.70;6.30;;;;;;;;;;108135;1253;22559;-80
2023/07/11 04:09:46;;;;;;;10.00;6.70;;;;;;;;;;108078;1251;22658;-80
2023/07/11 04:12:13;;;;;;;12.00;6.10;;;;;;;;;;108154;1251;23049;-80
2023/07/11 04:14:39;;;;;;;12.90;6.90;;;;;;;;;;109618;1251;22470;-81
2023/07/11 04:17:05;;;;;;;7.00;6.10;;;;;;;;;;109922;1251;22817;-80
2023/07/11 04:19:32;;;;;;;8.50;5.50;;;;;;;;;;108963;1251;22657;-80
2023/07/11 04:21:58;;;;;;;9.00;6.70;;;;;;;;;;108151;1251;22526;-80
2023/07/11 04:24:24;;;;;;;11.60;7.10;;;;;;;;;;108143;1251;24355;-80
2023/07/11 04:26:51;;;;;;;13.10;10.90;;;;;;;;;;108116;1251;24210;-80
2023/07/11 04:29:17;;;;;;;10.20;8.10;;;;;;;;;;108150;1251;22606;-80
2023/07/11 04:31:43;;;;;;;12.20;6.90;;;;;;;;;;108120;1251;22600;-79
2023/07/11 04:34:10;;;;;;;9.90;6.80;;;;;;;;;;108168;1251;25442;-80
2023/07/11 04:36:37;;;;;;;9.40;7.00;;;;;;;;;;107986;1254;24368;-80
2023/07/11 04:39:03;;;;;;;9.60;6.10;;;;;;;;;;108138;1253;22613;-80
2023/07/11 04:41:29;;;;;;;8.70;6.20;;;;;;;;;;108165;1251;22622;-80
2023/07/11 04:43:56;;;;;;;10.10;5.80;;;;;;;;;;108135;1251;25397;-80
2023/07/11 04:46:22;;;;;;;8.00;5.70;;;;;;;;;;108100;1255;22535;-80
2023/07/11 04:48:49;;;;;;;8.40;5.20;;;;;;;;;;108134;1251;27441;-80
2023/07/11 04:51:15;;;;;;;7.60;5.80;;;;;;;;;;108164;1251;25295;-79
2023/07/11 04:53:41;;;;;;;9.40;5.90;;;;;;;;;;108154;1251;22535;-79
2023/07/11 04:56:08;;;;;;;8.80;5.50;;;;;;;;;;108127;1251;22782;-80
2023/07/11 04:58:34;;;;;;;6.50;5.40;;;;;;;;;;108173;1251;22619;-80
2023/07/11 05:01:06;;;;;;;7.70;6.00;;;;;;;;;;108274;1251;22555;-80
2023/07/11 05:03:33;;;;;;;8.30;6.70;;;;;;;;;;108227;1251;22586;-80
2023/07/11 05:05:59;;;;;;;15.50;7.90;;;;;;;;;;108487;1251;22573;-80
2023/07/11 05:08:25;;;;;;;12.90;8.70;;;;;;;;;;108497;1251;23245;-80
2023/07/11 05:10:52;;;;;;;13.70;9.60;;;;;;;;;;108297;1252;23000;-79
2023/07/11 05:13:19;;;;;;;19.70;10.60;;;;;;;;;;108054;1251;22539;-80
2023/07/11 05:15:45;;;;;;;12.00;7.50;;;;;;;;;;108218;1251;22521;-80
2023/07/11 05:18:12;;;;;;;8.40;6.40;;;;;;;;;;108039;1252;22622;-80
2023/07/11 05:20:38;;;;;;;10.90;6.50;;;;;;;;;;108146;1253;22534;-79
2023/07/11 05:23:04;;;;;;;7.80;5.40;;;;;;;;;;108055;1250;22661;-80
2023/07/11 05:25:31;;;;;;;8.60;6.20;;;;;;;;;;108113;1251;22530;-81
2023/07/11 05:27:57;;;;;;;8.90;5.90;;;;;;;;;;108265;1255;22539;-80
2023/07/11 05:30:23;;;;;;;9.60;5.40;;;;;;;;;;108261;1251;24220;-80
2023/07/11 05:32:49;;;;;;;11.40;5.80;;;;;;;;;;108327;1251;22637;-79
2023/07/11 05:35:16;;;;;;;8.10;5.40;;;;;;;;;;108116;1251;22533;-80
2023/07/11 05:37:42;;;;;;;9.80;5.50;;;;;;;;;;108196;1251;22534;-80
2023/07/11 05:40:09;;;;;;;7.70;5.90;;;;;;;;;;108240;1251;23090;-80
2023/07/11 05:42:35;;;;;;;11.80;5.40;;;;;;;;;;108265;1250;25293;-80
2023/07/11 05:45:02;;;;;;;6.40;5.50;;;;;;;;;;108118;1250;22590;-80
2023/07/11 05:47:29;;;;;;;8.00;6.20;;;;;;;;;;108143;1251;22546;-80
2023/07/11 05:49:56;;;;;;;8.70;5.50;;;;;;;;;;108621;1250;24189;-80
2023/07/11 05:52:23;;;;;;;7.20;5.50;;;;;;;;;;108600;1251;22555;-80
2023/07/11 05:54:49;;;;;;;7.60;5.30;;;;;;;;;;108722;1251;22491;-81
2023/07/11 05:57:15;;;;;;;8.90;5.40;;;;;;;;;;108743;1251;22591;-80
2023/07/11 05:59:42;;;;;;;8.50;5.00;;;;;;;;;;108271;1251;24192;-80
2023/07/11 06:02:08;;;;;;;5.70;5.00;;;;;;;;;;108160;1251;22644;-80
2023/07/11 06:04:35;;;;;;;7.40;6.30;;;;;;;;;;108015;1252;22647;-80
2023/07/11 06:07:01;;;;;;;6.90;5.30;;;;;;;;;;108186;1251;22551;-81
2023/07/11 06:09:28;;;;;;;10.30;5.40;;;;;;;;;;108167;1251;23082;-80
2023/07/11 06:11:55;;;;;;;10.90;5.30;;;;;;;;;;107982;1256;22696;-80
2023/07/11 06:14:23;;;;;;;8.20;5.00;;;;;;;;;;108191;1249;24192;-81
2023/07/11 06:16:49;;;;;;;8.10;4.90;;;;;;;;;;108539;1251;25385;-80
2023/07/11 06:19:15;;;;;;;7.60;4.80;;;;;;;;;;108608;1251;25483;-80
2023/07/11 06:21:42;;;;;;;9.70;5.30;;;;;;;;;;108849;1252;22554;-80
2023/07/11 06:24:09;;;;;;;5.90;4.80;;;;;;;;;;108954;1251;22988;-80
2023/07/11 06:26:35;;;;;;;7.40;5.00;;;;;;;;;;108349;1253;23698;-81
2023/07/11 06:29:01;;;;;;;7.20;4.10;;;;;;;;;;108460;1251;22546;-80
2023/07/11 06:31:28;;;;;;;6.20;4.40;;;;;;;;;;108637;1250;22581;-80
2023/07/11 06:33:54;;;;;;;6.60;4.10;;;;;;;;;;108553;1251;22687;-81
2023/07/11 06:36:21;;;;;;;8.00;4.40;;;;;;;;;;108303;1251;22563;-80
2023/07/11 06:38:47;;;;;;;5.60;4.00;;;;;;;;;;108263;1251;22521;-81
2023/07/11 06:41:13;;;;;;;6.50;4.10;;;;;;;;;;108591;1251;22540;-81
2023/07/11 06:43:41;;;;;;;8.50;3.90;;;;;;;;;;108458;1251;22698;-81
2023/07/11 06:46:07;;;;;;;9.80;5.10;;;;;;;;;;108581;1252;23154;-81
2023/07/11 06:48:34;;;;;;;5.30;3.90;;;;;;;;;;108480;1251;22570;-81
2023/07/11 06:51:01;;;;;;;7.20;4.30;;;;;;;;;;108794;1250;22608;-81
2023/07/11 06:53:29;;;;;;;9.60;3.90;;;;;;;;;;108455;1251;22649;-81
2023/07/11 06:55:55;;;;;;;4.40;4.00;;;;;;;;;;108743;1251;23285;-81
2023/07/11 06:58:22;;;;;;;6.20;4.60;;;;;;;;;;108424;1251;25500;-81
2023/07/11 07:01:14;;;;;;;6.60;3.90;;;;;;;;;;108549;1251;22636;-81
2023/07/11 07:03:41;;;;;;;8.10;4.50;;;;;;;;;;108368;1251;22535;-81
2023/07/11 07:06:10;;;;;;;7.00;4.20;;;;;;;;;;108441;1251;25370;-81
2023/07/11 07:08:37;;;;;;;6.10;4.10;;;;;;;;;;108287;1251;194957;-81
2023/07/11 07:11:03;;;;;;;4.60;3.70;;;;;;;;;;108819;1250;22540;-81
2023/07/11 07:13:30;;;;;;;8.30;4.10;;;;;;;;;;108806;1251;23348;-81
2023/07/11 07:15:57;;;;;;;5.60;4.10;;;;;;;;;;108502;1252;22630;-81
2023/07/11 07:18:23;;;;;;;8.40;4.30;;;;;;;;;;108565;1252;25306;-80
2023/07/11 07:20:50;;;;;;;6.30;3.80;;;;;;;;;;108903;1251;25802;-81
2023/07/11 07:23:17;;;;;;;9.00;4.00;;;;;;;;;;109069;1251;22691;-81
2023/07/11 07:25:49;;;;;;;6.60;3.40;;;;;;;;;;108989;1251;22713;-80
2023/07/11 07:28:15;;;;;;;4.50;3.10;;;;;;;;;;108907;1251;22536;-80
2023/07/11 07:30:45;;;;;;;6.00;3.30;;;;;;;;;;109126;1251;26271;-81
2023/07/11 07:33:12;;;;;;;8.00;3.70;;;;;;;;;;108917;1251;22565;-81
2023/07/11 07:35:39;;;;;;;5.70;3.60;;;;;;;;;;108818;1250;22873;-81
2023/07/11 07:38:05;;;;;;;4.60;3.10;;;;;;;;;;108679;1252;22475;-80
2023/07/11 07:40:31;;;;;;;9.10;3.70;;;;;;;;;;108716;1252;22539;-80
2023/07/11 07:42:58;;;;;;;5.50;3.30;;;;;;;;;;108718;1251;22587;-81
2023/07/11 07:45:24;;;;;;;6.90;3.50;;;;;;;;;;108616;1251;22876;-80
2023/07/11 07:47:50;;;;;;;4.70;3.30;;;;;;;;;;108688;1251;22590;-81
2023/07/11 07:50:17;;;;;;;7.10;3.50;;;;;;;;;;108589;1251;22582;-80
2023/07/11 07:52:43;;;;;;;5.90;3.70;;;;;;;;;;108515;1251;25317;-81
2023/07/11 07:55:09;;;;;;;6.20;3.30;;;;;;;;;;108424;1251;22529;-81
2023/07/11 07:57:36;;;;;;;5.30;3.70;;;;;;;;;;108571;1251;25407;-81
2023/07/11 08:00:03;;;;;;;7.00;3.80;;;;;;;;;;108676;1252;22578;-81
2023/07/11 08:02:31;;;;;;;6.30;3.00;;;;;;;;;;108569;1251;22555;-81
2023/07/11 08:04:57;;;;;;;6.10;3.20;;;;;;;;;;108337;1251;22543;-81
2023/07/11 08:07:25;;;;;;;5.10;2.90;;;;;;;;;;108469;1251;24366;-81
2023/07/11 08:09:53;;;;;;;6.70;3.30;;;;;;;;;;108476;1251;23298;-81
2023/07/11 08:12:19;;;;;;;4.00;2.70;;;;;;;;;;108610;1252;22556;-81
2023/07/11 08:14:45;;;;;;;5.80;3.80;;;;;;;;;;108560;1250;22821;-81
2023/07/11 08:17:12;;;;;;;9.20;2.80;;;;;;;;;;108146;1251;22533;-80
2023/07/11 08:19:38;;;;;;;5.30;2.80;;;;;;;;;;108475;1251;22760;-81
2023/07/11 08:22:05;;;;;;;7.20;3.20;;;;;;;;;;108511;1254;22535;-80
2023/07/11 08:24:32;;;;;;;4.00;3.00;;;;;;;;;;110317;1251;22569;-76
2023/07/11 08:26:58;;;;;;;8.20;2.90;;;;;;;;;;107622;1253;22737;-74
2023/07/11 08:29:25;;;;;;;4.30;2.50;;;;;;;;;;107826;1251;22532;-80
2023/07/11 08:31:51;;;;;;;5.80;2.80;;;;;;;;;;107803;1252;22532;-76
2023/07/11 08:34:17;;;;;;;4.30;2.30;;;;;;;;;;107776;1251;22633;-79
2023/07/11 08:36:44;;;;;;;6.00;3.20;;;;;;;;;;107639;1252;22547;-82
2023/07/11 08:39:12;;;;;;;5.70;3.20;;;;;;;;;;108389;1251;22524;-81
2023/07/11 08:41:38;;;;;;;;;;;;;;;;;;108527;1251;22521;-81
2023/07/11 08:44:08;;;;;;;3.90;2.30;;;;;;;;;;108435;1251;23266;-80
2023/07/11 08:46:38;;;;;;;7.10;3.30;;;;;;;;;;108486;1251;22594;-80
2023/07/11 08:49:04;;;;;;;5.40;4.20;;;;;;;;;;108500;1251;22762;-82
2023/07/11 08:51:32;;;;;;;3.70;2.90;;;;;;;;;;108403;1251;22517;-80
2023/07/11 08:54:05;;;;;;;3.50;2.60;;;;;;;;;;108308;1251;22545;-81
2023/07/11 08:56:37;;;;;;;4.10;2.30;;;;;;;;;;108293;1256;22517;-81
2023/07/11 08:59:07;;;;;;;4.00;2.00;;;;;;;;;;108454;1251;23178;-80
2023/07/11 09:01:55;;;;;;;3.70;2.60;;;;;;;;;;108447;1251;22533;-80
2023/07/11 09:04:22;;;;;;;2.90;1.90;;;;;;;;;;108448;1251;23397;-82
2023/07/11 09:06:52;;;;;;;4.70;2.10;;;;;;;;;;108418;1251;23095;-80
2023/07/11 09:09:19;;;;;;;5.40;2.30;;;;;;;;;;108699;1251;22580;-82
2023/07/11 09:11:47;;;;;;;2.90;1.90;;;;;;;;;;108625;1251;22586;-81
2023/07/11 09:14:13;;;;;;;4.10;2.00;;;;;;;;;;108506;1252;22553;-81
2023/07/11 09:16:46;;;;;;;7.10;2.20;;;;;;;;;;108760;1251;22556;-82
2023/07/11 09:19:27;;;;;;;4.80;2.10;;;;;;;;;;108790;1251;22609;-82
2023/07/11 09:22:11;;;;;;;4.50;2.80;;;;;;;;;;108693;1251;22618;-80
2023/07/11 09:24:41;;;;;;;3.30;2.40;;;;;;;;;;108516;1251;22569;-80
2023/07/11 09:27:25;;;;;;;5.70;2.80;;;;;;;;;;108515;1250;22620;-80
2023/07/11 09:29:51;;;;;;;2.60;1.90;;;;;;;;;;108610;1251;23154;-80
2023/07/11 09:32:18;;;;;;;2.80;2.00;;;;;;;;;;108485;1250;22695;-82
2023/07/11 09:34:45;;;;;;;5.60;2.70;;;;;;;;;;108268;1251;25514;-81
2023/07/11 09:37:24;;;;;;;5.50;2.50;;;;;;;;;;108236;1251;22638;-81
2023/07/11 09:39:53;;;;;;;5.00;2.20;;;;;;;;;;108294;1251;23849;-80
2023/07/11 09:42:41;;;;;;;5.40;2.60;;;;;;;;;;108264;1250;22534;-81
2023/07/11 09:45:14;;;;;;;2.50;1.50;;;;;;;;;;108393;1251;22536;-81
2023/07/11 09:47:41;;;;;;;4.70;2.40;;;;;;;;;;108073;1252;23285;-80
2023/07/11 09:50:33;;;;;;;4.00;2.30;;;;;;;;;;108407;1251;22568;-80
2023/07/11 09:53:00;;;;;;;11.20;7.70;;;;;;;;;;108475;1251;26349;-83
2023/07/11 09:55:34;;;;;;;10.60;6.60;;;;;;;;;;108211;1251;25593;-83
2023/07/11 09:58:01;;;;;;;4.30;3.30;;;;;;;;;;108267;1251;23694;-82
2023/07/11 10:00:28;;;;;;;9.00;6.00;;;;;;;;;;108467;1251;22726;-80
2023/07/11 10:02:56;;;;;;;5.10;2.10;;;;;;;;;;108323;1251;22590;-82
2023/07/11 10:05:23;;;;;;;9.40;5.50;;;;;;;;;;108378;1251;23306;-81
2023/07/11 10:07:59;;;;;;;6.00;2.90;;;;;;;;;;108388;1251;22524;-82
2023/07/11 10:10:26;;;;;;;7.30;3.90;;;;;;;;;;108431;1251;22570;-81
2023/07/11 10:12:52;;;;;;;5.20;3.50;;;;;;;;;;108349;1251;23234;-81
2023/07/11 10:15:19;;;;;;;5.80;3.30;;;;;;;;;;108064;1252;27602;-82
2023/07/11 10:17:45;;;;;;;2.50;2.10;;;;;;;;;;108047;1257;22527;-81
2023/07/11 10:20:14;;;;;;;3.00;2.40;;;;;;;;;;108332;1251;22595;-80
2023/07/11 10:22:41;;;;;;;4.00;2.90;;;;;;;;;;108158;1251;26370;-82
2023/07/11 10:25:20;;;;;;;3.10;2.70;;;;;;;;;;108231;1251;22546;-80
2023/07/11 10:27:52;;;;;;;3.20;2.10;;;;;;;;;;108039;1255;23224;-82
2023/07/11 10:30:20;;;;;;;3.00;1.80;;;;;;;;;;108319;1251;24205;-80
2023/07/11 10:32:51;;;;;;;7.30;2.40;;;;;;;;;;108323;1251;22576;-82
2023/07/11 10:35:18;;;;;;;4.90;2.50;;;;;;;;;;108253;1253;22609;-80
2023/07/11 10:37:52;;;;;;;5.20;2.50;;;;;;;;;;108027;1253;22685;-82
2023/07/11 10:40:28;;;;;;;6.10;2.20;;;;;;;;;;108450;1251;26204;-83
2023/07/11 10:43:13;;;;;;;3.10;2.40;;;;;;;;;;108971;1251;22602;-82
2023/07/11 10:45:41;;;;;;;3.50;2.20;;;;;;;;;;108096;1252;22565;-83
2023/07/11 10:48:26;;;;;;;3.40;2.40;;;;;;;;;;107909;1251;22964;-81
2023/07/11 10:50:55;;;;;;;4.10;2.00;;;;;;;;;;108330;1251;23788;-81
2023/07/11 10:53:22;;;;;;;4.10;1.90;;;;;;;;;;108602;1250;22662;-81
2023/07/11 10:55:53;;;;;;;8.80;4.50;;;;;;;;;;108500;1251;22633;-83
2023/07/11 10:58:20;;;;;;;3.50;2.30;;;;;;;;;;108487;1251;22521;-81
2023/07/11 11:00:48;;;;;;;3.70;2.80;;;;;;;;;;108723;1251;22593;-83
2023/07/11 11:03:26;;;;;;;6.00;2.30;;;;;;;;;;108771;1251;22858;-82
2023/07/11 11:05:56;;;;;;;14.30;6.10;;;;;;;;;;108545;1251;22638;-83
2023/07/11 11:08:31;;;;;;;11.60;4.40;;;;;;;;;;108655;1254;22547;-82
2023/07/11 11:11:01;;;;;;;5.70;2.30;;;;;;;;;;108755;1251;23554;-82
2023/07/11 11:13:30;;;;;;;5.00;2.40;;;;;;;;;;108606;1253;22546;-81
2023/07/11 11:16:23;;;;;;;2.50;1.70;;;;;;;;;;108361;1252;22521;-82
2023/07/11 11:19:08;;;;;;;2.50;1.80;;;;;;;;;;108205;1253;25376;-82
2023/07/11 11:21:34;;;;;;;5.00;2.10;;;;;;;;;;108363;1251;22537;-83
2023/07/11 11:24:05;;;;;;;2.50;1.80;;;;;;;;;;108496;1251;23353;-82
2023/07/11 11:26:35;;;;;;;2.40;1.80;;;;;;;;;;108390;1251;24379;-82
2023/07/11 11:29:01;;;;;;;3.90;2.20;;;;;;;;;;108378;1251;22870;-82
2023/07/11 11:31:28;;;;;;;3.60;2.10;;;;;;;;;;108507;1251;22726;-82
2023/07/11 11:34:14;;;;;;;3.50;2.60;;;;;;;;;;108392;1251;22612;-82
2023/07/11 11:36:59;;;;;;;16.50;7.90;;;;;;;;;;108303;1251;23788;-82
2023/07/11 11:39:44;;;;;;;18.70;11.40;;;;;;;;;;108321;1251;23375;-82
2023/07/11 11:42:16;;;;;;;9.00;6.40;;;;;;;;;;108340;1251;23148;-82
2023/07/11 11:45:15;;;;;;;7.30;3.30;;;;;;;;;;108384;1255;25450;-82
2023/07/11 11:47:42;;;;;;;6.10;2.50;;;;;;;;;;108094;1251;26341;-83
2023/07/11 11:50:26;;;;;;;4.40;2.00;;;;;;;;;;108524;1251;22535;-82
2023/07/11 11:52:56;;;;;;;4.90;2.50;;;;;;;;;;108328;1256;22717;-82
2023/07/11 11:55:24;;;;;;;2.10;1.80;;;;;;;;;;108270;1265;26475;-82
2023/07/11 11:57:50;;;;;;;3.80;2.00;;;;;;;;;;108052;1251;25788;-82
2023/07/11 12:00:33;;;;;;;3.20;2.20;;;;;;;;;;108534;1250;22748;-82
2023/07/11 12:02:59;;;;;;;4.20;2.00;;;;;;;;;;108302;1253;23375;-82
2023/07/11 12:05:26;;;;;;;3.10;1.80;;;;;;;;;;108848;1253;24174;-82
2023/07/11 12:08:11;;;;;;;3.10;1.90;;;;;;;;;;108798;1251;24342;-81
2023/07/11 12:10:37;;;;;;;10.00;2.40;;;;;;;;;;108924;1251;22559;-82
2023/07/11 12:13:23;;;;;;;4.60;2.30;;;;;;;;;;109025;1252;24101;-81
2023/07/11 12:15:50;;;;;;;3.60;2.20;;;;;;;;;;108681;1251;22547;-81
2023/07/11 12:18:27;;;;;;;2.90;2.30;;;;;;;;;;108734;1251;22666;-81
2023/07/11 12:20:53;;;;;;;;;;;;;;;;;;110545;1251;22491;-81
2023/07/11 12:23:19;;;;;;;3.30;2.10;;;;;;;;;;109040;1253;24243;-81
2023/07/11 12:26:05;;;;;;;4.70;2.00;;;;;;;;;;108537;1251;25301;-82
2023/07/11 12:28:31;;;;;;;6.20;3.60;;;;;;;;;;108710;1252;24219;-82
2023/07/11 12:31:16;;;;;;;2.70;2.10;;;;;;;;;;108888;1250;26325;-81
2023/07/11 12:33:43;;;;;;;3.00;2.20;;;;;;;;;;108817;1251;25381;-81
2023/07/11 12:36:12;;;;;;;2.30;1.60;;;;;;;;;;108653;1251;22576;-81
2023/07/11 12:38:57;;;;;;;5.30;3.20;;;;;;;;;;108744;1251;25471;-82
2023/07/11 12:41:29;;;;;;;4.50;2.10;;;;;;;;;;108809;1253;22531;-81
2023/07/11 12:43:56;;;;;;;3.00;2.10;;;;;;;;;;110055;1252;23094;-77
2023/07/11 12:46:27;;;;;;;3.70;1.80;;;;;;;;;;109732;1256;22596;-77
2023/07/11 12:48:54;;;;;;;4.20;2.10;;;;;;;;;;108736;1250;22552;-77
2023/07/11 12:51:22;;;;;;;5.30;3.00;;;;;;;;;;108646;1254;23208;-82
2023/07/11 12:53:49;;;;;;;8.00;4.10;;;;;;;;;;108697;1251;22540;-75
2023/07/11 12:56:16;;;;;;;3.30;2.90;;;;;;;;;;107707;1252;22534;-76
2023/07/11 12:58:43;;;;;;;5.90;2.50;;;;;;;;;;107664;1249;22518;-78
2023/07/11 13:01:13;;;;;;;4.40;2.90;;;;;;;;;;107770;1252;22536;-78
2023/07/11 13:03:39;;;;;;;5.60;2.70;;;;;;;;;;108622;1251;24282;-79
2023/07/11 13:06:14;;;;;;;4.50;2.20;;;;;;;;;;108604;1250;22517;-77
2023/07/11 13:08:40;;;;;;;4.10;2.10;;;;;;;;;;107984;1251;22553;-76
2023/07/11 13:11:06;;;;;;;4.30;2.10;;;;;;;;;;108008;1255;22535;-77
2023/07/11 13:13:33;;;;;;;4.40;2.10;;;;;;;;;;107915;1251;22548;-77
2023/07/11 13:16:01;;;;;;;4.50;2.90;;;;;;;;;;110512;1252;22345;-78
2023/07/11 13:18:30;;;;;;;9.70;8.30;;;;;;;;;;110542;1251;22536;-78
2023/07/11 13:20:57;;;;;;;4.30;2.70;;;;;;;;;;110509;1251;23545;-79
2023/07/11 13:23:23;;;;;;;3.00;2.20;;;;;;;;;;110464;1253;22458;-78
2023/07/11 13:25:49;;;;;;;5.20;2.40;;;;;;;;;;108468;1251;24251;-74
2023/07/11 13:28:17;;;;;;;2.60;1.80;;;;;;;;;;107595;1253;22531;-74
2023/07/11 13:30:43;;;;;;;3.60;2.30;;;;;;;;;;107766;1251;25300;-78
2023/07/11 13:33:13;;;;;;;3.20;2.00;;;;;;;;;;107585;1252;22535;-85
2023/07/11 13:35:48;;;;;;;5.20;2.80;;;;;;;;;;109388;1252;22828;-84
2023/07/11 13:38:14;;;;;;;6.10;2.20;;;;;;;;;;107645;1251;24278;-84
2023/07/11 13:40:42;;;;;;;11.40;6.00;;;;;;;;;;107735;1251;22622;-78
2023/07/11 13:43:16;;;;;;;4.20;2.60;;;;;;;;;;107902;1252;22568;-77
2023/07/11 13:45:43;;;;;;;5.90;2.70;;;;;;;;;;108121;1251;23217;-84
2023/07/11 13:48:17;;;;;;;9.30;6.20;;;;;;;;;;108016;1252;22593;-78
2023/07/11 13:50:44;;;;;;;2.80;2.00;;;;;;;;;;108139;1255;25664;-83
2023/07/11 13:53:14;;;;;;;2.70;1.90;;;;;;;;;;108166;1251;22658;-83
2023/07/11 13:55:45;;;;;;;5.10;1.90;;;;;;;;;;107888;1255;23024;-83
2023/07/11 13:58:11;;;;;;;2.70;2.10;;;;;;;;;;107705;1251;25416;-83
2023/07/11 14:00:38;;;;;;;5.70;3.20;;;;;;;;;;107794;1252;24089;-83
2023/07/11 14:03:05;;;;;;;;;;;;;;;;;;107608;1257;22510;-84
2023/07/11 14:05:31;;;;;;;3.90;2.90;;;;;;;;;;107666;1251;22476;-77
2023/07/11 14:07:58;;;;;;;2.60;2.00;;;;;;;;;;107495;1255;25292;-85
2023/07/11 14:10:25;;;;;;;2.70;1.60;;;;;;;;;;107721;1251;22547;-84
2023/07/11 14:12:52;;;;;;;4.70;1.90;;;;;;;;;;107721;1255;22548;-77
2023/07/11 14:15:21;;;;;;;4.70;1.80;;;;;;;;;;107901;1251;23274;-77
2023/07/11 14:17:48;;;;;;;3.40;1.90;;;;;;;;;;107866;1251;25513;-83
2023/07/11 14:20:15;;;;;;;3.20;1.70;;;;;;;;;;107866;1253;24239;-77
2023/07/11 14:22:41;;;;;;;3.40;2.00;;;;;;;;;;107848;1252;25472;-84
2023/07/11 14:25:11;;;;;;;3.60;1.90;;;;;;;;;;107744;1253;23986;-77
2023/07/11 14:27:38;;;;;;;2.50;1.60;;;;;;;;;;107712;1251;22811;-84
2023/07/11 14:30:04;;;;;;;2.60;1.80;;;;;;;;;;107665;1252;25453;-84
2023/07/11 14:32:31;;;;;;;4.00;1.80;;;;;;;;;;107518;1250;22503;-78